createdAt,value
2022-09-13T00:00:07.619Z,98898.00
2022-09-13T00:01:41.279Z,98901.00
2022-09-13T00:03:15.119Z,98904.00
2022-09-13T00:04:48.363Z,98908.00
2022-09-13T00:06:22.895Z,98910.00
2022-09-13T00:07:55.704Z,98905.00
2022-09-13T00:09:28.955Z,98907.00
2022-09-13T00:11:01.474Z,98913.00
2022-09-13T00:12:36.083Z,98905.00
2022-09-13T00:14:09.400Z,98907.00
2022-09-13T00:15:44.587Z,98903.00
2022-09-13T00:17:18.116Z,98895.00
2022-09-13T00:18:51.114Z,98898.00
2022-09-13T00:20:27.039Z,98898.00
2022-09-13T00:22:00.630Z,98896.00
2022-09-13T00:23:34.263Z,98903.00
2022-09-13T00:25:08.773Z,98892.00
2022-09-13T00:26:42.223Z,98902.00
2022-09-13T00:28:16.842Z,98899.00
2022-09-13T00:29:50.032Z,98902.00
2022-09-13T00:31:27.456Z,98893.00
2022-09-13T00:33:04.327Z,98886.00
2022-09-13T00:34:37.505Z,98893.00
2022-09-13T00:36:12.144Z,98888.00
2022-09-13T00:37:45.436Z,98883.00
2022-09-13T00:39:18.994Z,98879.00
2022-09-13T00:40:52.357Z,98873.00
2022-09-13T00:42:27.590Z,98865.00
2022-09-13T00:44:04.602Z,98846.00
2022-09-13T00:45:38.944Z,98841.00
2022-09-13T00:47:15.543Z,98846.00
2022-09-13T00:48:51.935Z,98844.00
2022-09-13T00:50:30.763Z,98841.00
2022-09-13T00:52:09.827Z,98842.00
2022-09-13T00:53:50.338Z,98837.00
2022-09-13T00:55:30.203Z,98835.00
2022-09-13T00:57:06.488Z,98846.00
2022-09-13T00:58:47.074Z,98849.00
2022-09-13T01:00:24.962Z,98845.00
2022-09-13T01:02:07.522Z,98839.00
2022-09-13T01:03:49.501Z,98840.00
2022-09-13T01:05:33.634Z,98855.00
2022-09-13T01:07:15.743Z,98861.00
2022-09-13T01:08:56.843Z,98862.00
2022-09-13T01:10:33.792Z,98852.00
2022-09-13T01:12:19.631Z,98868.00
2022-09-13T01:13:58.269Z,98855.00
2022-09-13T01:15:37.565Z,98863.00
2022-09-13T01:17:12.918Z,98869.00
2022-09-13T01:18:47.278Z,98861.00
2022-09-13T01:20:24.098Z,98855.00
2022-09-13T01:23:12.409Z,98856.00
2022-09-13T01:26:00.830Z,98850.00
2022-09-13T01:28:04.463Z,98849.00
2022-09-13T01:30:20.735Z,98846.00
2022-09-13T01:32:07.351Z,98847.00
2022-09-13T01:33:56.128Z,98846.00
2022-09-13T01:35:44.198Z,98843.00
2022-09-13T01:37:45.456Z,98847.00
2022-09-13T01:39:35.381Z,98837.00
2022-09-13T01:41:28.088Z,98850.00
2022-09-13T01:43:23.601Z,98846.00
2022-09-13T01:45:10.890Z,98844.00
2022-09-13T01:46:54.699Z,98849.00
2022-09-13T01:48:50.629Z,98842.00
2022-09-13T01:50:39.991Z,98847.00
2022-09-13T01:52:26.649Z,98836.00
2022-09-13T01:54:16.540Z,98838.00
2022-09-13T01:55:58.779Z,98835.00
2022-09-13T01:57:42.252Z,98832.00
2022-09-13T01:59:23.746Z,98833.00
2022-09-13T02:01:09.532Z,98833.00
2022-09-13T02:02:52.732Z,98842.00
2022-09-13T02:04:36.818Z,98840.00
2022-09-13T02:06:16.622Z,98841.00
2022-09-13T02:07:59.840Z,98841.00
2022-09-13T02:09:41.251Z,98844.00
2022-09-13T02:11:17.219Z,98848.00
2022-09-13T02:12:55.175Z,98845.00
2022-09-13T02:14:36.308Z,98828.00
2022-09-13T02:16:17.386Z,98838.00
2022-09-13T02:18:01.228Z,98834.00
2022-09-13T02:19:41.455Z,98831.00
2022-09-13T02:21:22.379Z,98829.00
2022-09-13T02:22:59.266Z,98835.00
2022-09-13T02:24:37.783Z,98830.00
2022-09-13T02:26:16.166Z,98846.00
2022-09-13T02:27:58.847Z,98838.00
2022-09-13T02:29:37.583Z,98831.00
2022-09-13T02:31:13.930Z,98827.00
2022-09-13T02:32:57.043Z,98842.00
2022-09-13T02:34:38.005Z,98851.00
2022-09-13T02:36:16.466Z,98838.00
2022-09-13T02:37:58.182Z,98836.00
2022-09-13T02:39:36.540Z,98843.00
2022-09-13T02:41:17.890Z,98832.00
2022-09-13T02:42:59.891Z,98837.00
2022-09-13T02:44:37.709Z,98836.00
2022-09-13T02:46:28.839Z,98832.00
2022-09-13T02:48:13.467Z,98831.00
2022-09-13T02:49:58.858Z,98825.00
2022-09-13T02:51:46.052Z,98829.00
2022-09-13T02:53:31.437Z,98832.00
2022-09-13T02:55:18.766Z,98826.00
2022-09-13T02:57:00.082Z,98832.00
2022-09-13T02:58:44.930Z,98836.00
2022-09-13T03:00:18.165Z,98831.00
2022-09-13T03:01:59.816Z,98826.00
2022-09-13T03:03:34.723Z,98829.00
2022-09-13T03:05:08.926Z,98831.00
2022-09-13T03:06:41.878Z,98836.00
2022-09-13T03:08:18.245Z,98826.00
2022-09-13T03:09:57.137Z,98826.00
2022-09-13T03:11:53.900Z,98832.00
2022-09-13T03:14:02.545Z,98829.00
2022-09-13T03:15:59.556Z,98826.00
2022-09-13T03:17:53.485Z,98826.00
2022-09-13T03:19:48.228Z,98827.00
2022-09-13T03:21:46.601Z,98830.00
2022-09-13T03:23:53.161Z,98830.00
2022-09-13T03:26:00.925Z,98827.00
2022-09-13T03:27:46.529Z,98826.00
2022-09-13T03:29:32.176Z,98830.00
2022-09-13T03:31:12.303Z,98837.00
2022-09-13T03:32:54.170Z,98831.00
2022-09-13T03:34:42.941Z,98839.00
2022-09-13T03:36:26.258Z,98841.00
2022-09-13T03:38:09.922Z,98838.00
2022-09-13T03:39:49.581Z,98839.00
2022-09-13T03:41:32.188Z,98844.00
2022-09-13T03:43:13.875Z,98844.00
2022-09-13T03:44:51.837Z,98840.00
2022-09-13T03:46:32.446Z,98831.00
2022-09-13T03:48:07.737Z,98842.00
2022-09-13T03:49:43.038Z,98835.00
2022-09-13T03:51:16.992Z,98832.00
2022-09-13T03:52:59.256Z,98825.00
2022-09-13T03:54:34.009Z,98828.00
2022-09-13T03:56:14.864Z,98828.00
2022-09-13T03:57:48.308Z,98825.00
2022-09-13T03:59:22.596Z,98821.00
2022-09-13T04:00:56.171Z,98814.00
2022-09-13T04:02:30.274Z,98810.00
2022-09-13T04:04:04.448Z,98816.00
2022-09-13T04:05:39.200Z,98814.00
2022-09-13T04:07:15.185Z,98816.00
2022-09-13T04:08:48.521Z,98814.00
2022-09-13T04:10:24.156Z,98814.00
2022-09-13T04:11:56.692Z,98808.00
2022-09-13T04:13:30.210Z,98814.00
2022-09-13T04:15:03.709Z,98806.00
2022-09-13T04:16:37.060Z,98805.00
2022-09-13T04:18:11.455Z,98802.00
2022-09-13T04:19:47.008Z,98798.00
2022-09-13T04:21:21.910Z,98788.00
2022-09-13T04:22:56.396Z,98801.00
2022-09-13T04:24:31.139Z,98796.00
2022-09-13T04:26:06.824Z,98787.00
2022-09-13T04:27:40.065Z,98792.00
2022-09-13T04:29:12.601Z,98778.00
2022-09-13T04:30:46.745Z,98788.00
2022-09-13T04:32:20.136Z,98793.00
2022-09-13T04:33:55.085Z,98796.00
2022-09-13T04:35:29.077Z,98795.00
2022-09-13T04:37:04.257Z,98799.00
2022-09-13T04:38:37.726Z,98792.00
2022-09-13T04:40:11.423Z,98796.00
2022-09-13T04:41:47.124Z,98799.00
2022-09-13T04:43:20.652Z,98803.00
2022-09-13T04:44:54.753Z,98804.00
2022-09-13T04:46:28.169Z,98797.00
2022-09-13T04:48:02.280Z,98804.00
2022-09-13T04:49:34.697Z,98795.00
2022-09-13T04:51:08.020Z,98794.00
2022-09-13T04:52:42.610Z,98788.00
2022-09-13T04:54:16.675Z,98777.00
2022-09-13T04:55:49.898Z,98782.00
2022-09-13T04:57:25.249Z,98780.00
2022-09-13T04:58:58.491Z,98787.00
2022-09-13T05:00:32.493Z,98799.00
2022-09-13T05:02:06.235Z,98804.00
2022-09-13T05:03:40.055Z,98798.00
2022-09-13T05:05:13.334Z,98801.00
2022-09-13T05:06:48.372Z,98803.00
2022-09-13T05:08:24.008Z,98804.00
2022-09-13T05:09:57.297Z,98813.00
2022-09-13T05:11:31.608Z,98815.00
2022-09-13T05:13:04.870Z,98810.00
2022-09-13T05:14:38.414Z,98807.00
2022-09-13T05:16:11.858Z,98811.00
2022-09-13T05:17:45.316Z,98809.00
2022-09-13T05:19:18.832Z,98809.00
2022-09-13T05:20:54.658Z,98812.00
2022-09-13T05:22:27.945Z,98803.00
2022-09-13T05:24:03.440Z,98810.00
2022-09-13T05:25:36.926Z,98805.00
2022-09-13T05:27:11.336Z,98804.00
2022-09-13T05:28:45.161Z,98805.00
2022-09-13T05:30:18.770Z,98808.00
2022-09-13T05:31:52.691Z,98810.00
2022-09-13T05:33:26.422Z,98813.00
2022-09-13T05:35:00.086Z,98811.00
2022-09-13T05:36:33.433Z,98826.00
2022-09-13T05:38:05.721Z,98817.00
2022-09-13T05:40:07.375Z,98813.00
2022-09-13T05:41:33.874Z,98812.00
2022-09-13T05:43:07.386Z,98804.00
2022-09-13T05:44:41.462Z,98797.00
2022-09-13T05:46:17.166Z,98799.00
2022-09-13T05:47:52.766Z,98806.00
2022-09-13T05:49:26.195Z,98804.00
2022-09-13T05:51:07.145Z,98810.00
2022-09-13T05:52:40.370Z,98809.00
2022-09-13T05:54:14.441Z,98806.00
2022-09-13T05:55:49.789Z,98808.00
2022-09-13T05:57:23.129Z,98806.00
2022-09-13T05:58:57.265Z,98810.00
2022-09-13T06:00:31.704Z,98810.00
2022-09-13T06:02:05.170Z,98815.00
2022-09-13T06:03:38.568Z,98799.00
2022-09-13T06:05:12.590Z,98799.00
2022-09-13T06:06:46.616Z,98810.00
2022-09-13T06:08:19.960Z,98803.00
2022-09-13T06:09:53.399Z,98813.00
2022-09-13T06:11:28.880Z,98821.00
2022-09-13T06:13:02.402Z,98813.00
2022-09-13T06:14:35.704Z,98819.00
2022-09-13T06:16:11.895Z,98817.00
2022-09-13T06:17:45.804Z,98821.00
2022-09-13T06:19:19.193Z,98820.00
2022-09-13T06:20:58.340Z,98820.00
2022-09-13T06:22:35.361Z,98821.00
2022-09-13T06:24:09.249Z,98821.00
2022-09-13T06:25:43.646Z,98826.00
2022-09-13T06:27:18.853Z,98816.00
2022-09-13T06:28:55.127Z,98820.00
2022-09-13T06:30:28.485Z,98821.00
2022-09-13T06:32:02.629Z,98819.00
2022-09-13T06:33:38.321Z,98815.00
2022-09-13T06:35:12.093Z,98820.00
2022-09-13T06:36:45.591Z,98822.00
2022-09-13T06:38:18.816Z,98817.00
2022-09-13T06:39:52.287Z,98818.00
2022-09-13T06:41:27.353Z,98812.00
2022-09-13T06:43:02.769Z,98810.00
2022-09-13T06:44:36.576Z,98812.00
2022-09-13T06:46:12.828Z,98814.00
2022-09-13T06:47:46.322Z,98815.00
2022-09-13T06:49:19.677Z,98817.00
2022-09-13T06:50:53.349Z,98820.00
2022-09-13T06:52:27.768Z,98824.00
2022-09-13T06:54:04.034Z,98819.00
2022-09-13T06:55:37.236Z,98817.00
2022-09-13T06:57:11.044Z,98823.00
2022-09-13T06:58:48.702Z,98823.00
2022-09-13T07:00:21.573Z,98822.00
2022-09-13T07:01:55.466Z,98821.00
2022-09-13T07:03:28.780Z,98819.00
2022-09-13T07:05:02.164Z,98820.00
2022-09-13T07:06:39.101Z,98815.00
2022-09-13T07:08:12.613Z,98825.00
2022-09-13T07:09:45.901Z,98819.00
2022-09-13T07:11:20.567Z,98820.00
2022-09-13T07:12:53.759Z,98821.00
2022-09-13T07:14:30.456Z,98819.00
2022-09-13T07:16:06.373Z,98818.00
2022-09-13T07:17:39.646Z,98822.00
2022-09-13T07:19:17.161Z,98818.00
2022-09-13T07:20:49.610Z,98819.00
2022-09-13T07:22:26.977Z,98821.00
2022-09-13T07:24:00.776Z,98822.00
2022-09-13T07:25:34.001Z,98823.00
2022-09-13T07:27:07.373Z,98817.00
2022-09-13T07:28:43.896Z,98817.00
2022-09-13T07:30:18.665Z,98815.00
2022-09-13T07:31:54.980Z,98817.00
2022-09-13T07:33:27.888Z,98816.00
2022-09-13T07:35:01.406Z,98822.00
2022-09-13T07:36:37.517Z,98813.00
2022-09-13T07:38:09.877Z,98812.00
2022-09-13T07:39:43.432Z,98815.00
2022-09-13T07:41:19.748Z,98818.00
2022-09-13T07:42:53.265Z,98813.00
2022-09-13T07:44:27.071Z,98810.00
2022-09-13T07:46:04.333Z,98813.00
2022-09-13T07:47:37.896Z,98808.00
2022-09-13T07:49:13.660Z,98816.00
2022-09-13T07:50:59.538Z,98818.00
2022-09-13T07:52:36.380Z,98817.00
2022-09-13T07:54:14.098Z,98814.00
2022-09-13T07:55:47.402Z,98815.00
2022-09-13T07:57:21.156Z,98815.00
2022-09-13T07:58:55.882Z,98813.00
2022-09-13T08:00:29.880Z,98818.00
2022-09-13T08:02:04.780Z,98817.00
2022-09-13T08:03:38.636Z,98820.00
2022-09-13T08:05:12.181Z,98822.00
2022-09-13T08:06:46.695Z,98824.00
2022-09-13T08:08:20.547Z,98824.00
2022-09-13T08:09:56.255Z,98824.00
2022-09-13T08:11:37.085Z,98825.00
2022-09-13T08:13:10.355Z,98826.00
2022-09-13T08:14:43.964Z,98822.00
2022-09-13T08:16:19.264Z,98830.00
2022-09-13T08:17:54.670Z,98830.00
2022-09-13T08:19:28.496Z,98822.00
2022-09-13T08:21:02.834Z,98829.00
2022-09-13T08:22:36.168Z,98835.00
2022-09-13T08:24:16.036Z,98827.00
2022-09-13T08:25:48.385Z,98837.00
2022-09-13T08:27:21.883Z,98836.00
2022-09-13T08:29:01.951Z,98825.00
2022-09-13T08:30:37.149Z,98840.00
2022-09-13T08:32:10.988Z,98824.00
2022-09-13T08:33:48.446Z,98836.00
2022-09-13T08:35:22.368Z,98822.00
2022-09-13T08:36:55.960Z,98826.00
2022-09-13T08:38:29.016Z,98827.00
2022-09-13T08:40:02.889Z,98829.00
2022-09-13T08:42:11.263Z,98828.00
2022-09-13T08:43:55.784Z,98828.00
2022-09-13T08:45:29.697Z,98824.00
2022-09-13T08:47:32.141Z,98828.00
2022-09-13T08:49:16.313Z,98822.00
2022-09-13T08:50:54.897Z,98820.00
2022-09-13T08:52:35.193Z,98821.00
2022-09-13T08:54:13.027Z,98825.00
2022-09-13T08:55:57.822Z,98820.00
2022-09-13T08:57:42.813Z,98827.00
2022-09-13T08:59:39.670Z,98822.00
2022-09-13T09:01:29.646Z,98827.00
2022-09-13T09:03:21.776Z,98814.00
2022-09-13T09:05:06.958Z,98806.00
2022-09-13T09:06:40.445Z,98819.00
2022-09-13T09:08:28.828Z,98814.00
2022-09-13T09:10:12.669Z,98813.00
2022-09-13T09:11:55.192Z,98811.00
2022-09-13T09:13:36.025Z,98807.00
2022-09-13T09:15:18.458Z,98818.00
2022-09-13T09:16:58.560Z,98813.00
2022-09-13T09:18:37.848Z,98812.00
2022-09-13T09:20:25.888Z,98818.00
2022-09-13T09:22:00.359Z,98826.00
2022-09-13T09:23:55.258Z,98826.00
2022-09-13T09:25:29.165Z,98816.00
2022-09-13T09:27:11.017Z,98817.00
2022-09-13T09:28:45.080Z,98814.00
2022-09-13T09:30:17.841Z,98810.00
2022-09-13T09:32:10.400Z,98807.00
2022-09-13T09:34:09.860Z,98819.00
2022-09-13T09:35:58.022Z,98811.00
2022-09-13T09:37:32.508Z,98814.00
2022-09-13T09:39:07.726Z,98813.00
2022-09-13T09:40:41.815Z,98811.00
2022-09-13T09:42:20.453Z,98810.00
2022-09-13T09:44:03.819Z,98808.00
2022-09-13T09:45:42.227Z,98806.00
2022-09-13T09:47:27.214Z,98811.00
2022-09-13T09:49:35.844Z,98813.00
2022-09-13T09:51:14.014Z,98808.00
2022-09-13T09:52:56.709Z,98812.00
2022-09-13T09:54:31.492Z,98811.00
2022-09-13T09:56:20.838Z,98811.00
2022-09-13T09:57:58.224Z,98818.00
2022-09-13T09:59:34.080Z,98810.00
2022-09-13T10:01:20.830Z,98813.00
2022-09-13T10:02:59.527Z,98808.00
2022-09-13T10:04:33.147Z,98806.00
2022-09-13T10:06:12.541Z,98804.00
2022-09-13T10:07:53.233Z,98794.00
2022-09-13T10:09:27.750Z,98793.00
2022-09-13T10:11:02.956Z,98803.00
2022-09-13T10:12:40.881Z,98801.00
2022-09-13T10:14:39.483Z,98800.00
2022-09-13T10:16:27.548Z,98805.00
2022-09-13T10:18:43.016Z,98800.00
2022-09-13T10:20:26.596Z,98792.00
2022-09-13T10:22:05.684Z,98795.00
2022-09-13T10:23:40.157Z,98798.00
2022-09-13T10:25:17.573Z,98786.00
2022-09-13T10:26:51.204Z,98791.00
2022-09-13T10:28:26.516Z,98794.00
2022-09-13T10:30:03.811Z,98792.00
2022-09-13T10:31:41.079Z,98801.00
2022-09-13T10:33:29.045Z,98792.00
2022-09-13T10:35:16.876Z,98787.00
2022-09-13T10:36:57.978Z,98791.00
2022-09-13T10:38:35.853Z,98804.00
2022-09-13T10:40:20.084Z,98787.00
2022-09-13T10:41:59.021Z,98787.00
2022-09-13T10:43:34.786Z,98791.00
2022-09-13T10:45:20.492Z,98798.00
2022-09-13T10:46:55.169Z,98797.00
2022-09-13T10:48:32.213Z,98797.00
2022-09-13T10:50:32.392Z,98802.00
2022-09-13T10:52:32.749Z,98802.00
2022-09-13T10:54:21.072Z,98798.00
2022-09-13T10:55:55.433Z,98783.00
2022-09-13T10:57:36.660Z,98802.00
2022-09-13T10:59:25.263Z,98793.00
2022-09-13T11:01:45.290Z,98797.00
2022-09-13T11:03:40.005Z,98796.00
2022-09-13T11:05:25.368Z,98793.00
2022-09-13T11:07:18.514Z,98800.00
2022-09-13T11:09:07.505Z,98794.00
2022-09-13T11:10:57.037Z,98784.00
2022-09-13T11:12:42.275Z,98795.00
2022-09-13T11:14:42.923Z,98782.00
2022-09-13T11:16:35.444Z,98786.00
2022-09-13T11:18:44.329Z,98783.00
2022-09-13T11:20:33.673Z,98775.00
2022-09-13T11:22:37.604Z,98772.00
2022-09-13T11:24:55.298Z,98771.00
2022-09-13T11:26:53.071Z,98776.00
2022-09-13T11:28:40.556Z,98778.00
2022-09-13T11:30:19.481Z,98771.00
2022-09-13T11:32:07.195Z,98768.00
2022-09-13T11:33:58.695Z,98776.00
2022-09-13T11:35:48.033Z,98775.00
2022-09-13T11:37:44.979Z,98776.00
2022-09-13T11:39:33.247Z,98769.00
2022-09-13T11:41:28.376Z,98769.00
2022-09-13T11:43:24.762Z,98776.00
2022-09-13T11:45:21.888Z,98766.00
2022-09-13T11:47:09.236Z,98768.00
2022-09-13T11:49:02.848Z,98764.00
2022-09-13T11:50:47.646Z,98758.00
2022-09-13T11:52:34.955Z,98756.00
2022-09-13T11:54:33.558Z,98754.00
2022-09-13T11:56:12.591Z,98751.00
2022-09-13T11:57:52.844Z,98749.00
2022-09-13T11:59:39.340Z,98745.00
2022-09-13T12:01:21.532Z,98745.00
2022-09-13T12:03:07.795Z,98740.00
2022-09-13T12:05:11.328Z,98744.00
2022-09-13T12:06:51.469Z,98738.00
2022-09-13T12:08:30.573Z,98738.00
2022-09-13T12:10:14.881Z,98737.00
2022-09-13T12:11:55.793Z,98734.00
2022-09-13T12:13:33.664Z,98738.00
2022-09-13T12:15:18.021Z,98736.00
2022-09-13T12:16:59.144Z,98727.00
2022-09-13T12:18:39.237Z,98734.00
2022-09-13T12:20:31.675Z,98734.00
2022-09-13T12:22:07.630Z,98734.00
2022-09-13T12:23:54.248Z,98723.00
2022-09-13T12:25:40.199Z,98723.00
2022-09-13T12:27:24.682Z,98727.00
2022-09-13T12:29:03.820Z,98724.00
2022-09-13T12:30:53.098Z,98714.00
2022-09-13T12:32:28.996Z,98720.00
2022-09-13T12:34:15.105Z,98715.00
2022-09-13T12:36:06.896Z,98719.00
2022-09-13T12:38:21.639Z,98720.00
2022-09-13T12:40:17.592Z,98720.00
2022-09-13T12:42:18.229Z,98715.00
2022-09-13T12:44:19.836Z,98721.00
2022-09-13T12:46:28.025Z,98724.00
2022-09-13T12:48:21.718Z,98724.00
2022-09-13T12:50:43.527Z,98722.00
2022-09-13T12:52:36.531Z,98725.00
2022-09-13T12:54:45.819Z,98711.00
2022-09-13T12:56:43.246Z,98704.00
2022-09-13T12:58:58.104Z,98714.00
2022-09-13T13:00:35.200Z,98704.00
2022-09-13T13:02:31.580Z,98703.00
2022-09-13T13:04:16.821Z,98709.00
2022-09-13T13:05:58.846Z,98712.00
2022-09-13T13:07:38.090Z,98707.00
2022-09-13T13:09:30.731Z,98716.00
2022-09-13T13:11:09.660Z,98706.00
2022-09-13T13:12:43.068Z,98718.00
2022-09-13T13:14:53.753Z,98717.00
2022-09-13T13:16:31.536Z,98715.00
2022-09-13T13:18:25.997Z,98719.00
2022-09-13T13:19:59.599Z,98726.00
2022-09-13T13:21:37.682Z,98717.00
2022-09-13T13:23:26.949Z,98722.00
2022-09-13T13:25:38.006Z,98720.00
2022-09-13T13:27:48.404Z,98718.00
2022-09-13T13:29:24.270Z,98722.00
2022-09-13T13:30:58.998Z,98719.00
2022-09-13T13:32:32.382Z,98719.00
2022-09-13T13:34:39.938Z,98713.00
2022-09-13T13:36:24.753Z,98707.00
2022-09-13T13:38:31.483Z,98715.00
2022-09-13T13:40:29.000Z,98710.00
2022-09-13T13:42:11.636Z,98712.00
2022-09-13T13:43:44.963Z,98705.00
2022-09-13T13:45:28.150Z,98716.00
2022-09-13T13:48:02.709Z,98708.00
2022-09-13T13:50:10.403Z,98716.00
2022-09-13T13:51:43.715Z,98724.00
2022-09-13T13:53:23.485Z,98713.00
2022-09-13T13:55:04.295Z,98715.00
2022-09-13T13:56:49.922Z,98707.00
2022-09-13T13:58:38.464Z,98712.00
2022-09-13T14:00:17.776Z,98709.00
2022-09-13T14:01:59.299Z,98708.00
2022-09-13T14:04:00.276Z,98706.00
2022-09-13T14:05:45.783Z,98705.00
2022-09-13T14:08:01.275Z,98701.00
2022-09-13T14:09:49.097Z,98695.00
2022-09-13T14:11:42.888Z,98699.00
2022-09-13T14:13:41.776Z,98697.00
2022-09-13T14:15:42.248Z,98696.00
2022-09-13T14:17:58.105Z,98700.00
2022-09-13T14:19:35.254Z,98699.00
2022-09-13T14:21:24.872Z,98701.00
2022-09-13T14:23:18.254Z,98698.00
2022-09-13T14:24:53.837Z,98689.00
2022-09-13T14:26:29.522Z,98695.00
2022-09-13T14:28:03.472Z,98690.00
2022-09-13T14:29:37.500Z,98687.00
2022-09-13T14:31:20.273Z,98688.00
2022-09-13T14:32:58.154Z,98700.00
2022-09-13T14:34:36.194Z,98696.00
2022-09-13T14:36:22.195Z,98691.00
2022-09-13T14:37:57.278Z,98691.00
2022-09-13T14:39:31.540Z,98693.00
2022-09-13T14:41:15.926Z,98691.00
2022-09-13T14:42:52.271Z,98690.00
2022-09-13T14:44:29.031Z,98697.00
2022-09-13T14:46:09.308Z,98683.00
2022-09-13T14:47:53.277Z,98695.00
2022-09-13T14:49:34.508Z,98694.00
2022-09-13T14:51:19.264Z,98697.00
2022-09-13T14:52:59.254Z,98696.00
2022-09-13T14:54:38.761Z,98693.00
2022-09-13T14:56:19.049Z,98693.00
2022-09-13T14:57:58.724Z,98691.00
2022-09-13T14:59:37.865Z,98695.00
2022-09-13T15:01:15.439Z,98691.00
2022-09-13T15:02:53.529Z,98690.00
2022-09-13T15:04:28.179Z,98691.00
2022-09-13T15:06:05.472Z,98689.00
2022-09-13T15:07:42.320Z,98686.00
2022-09-13T15:09:29.319Z,98684.00
2022-09-13T15:11:05.904Z,98682.00
2022-09-13T15:12:51.357Z,98682.00
2022-09-13T15:14:28.812Z,98686.00
2022-09-13T15:16:02.727Z,98678.00
2022-09-13T15:17:58.771Z,98677.00
2022-09-13T15:19:40.185Z,98678.00
2022-09-13T15:21:19.125Z,98679.00
2022-09-13T15:22:53.814Z,98682.00
2022-09-13T15:24:33.178Z,98674.00
2022-09-13T15:26:10.059Z,98679.00
2022-09-13T15:27:48.389Z,98687.00
2022-09-13T15:29:21.871Z,98677.00
2022-09-13T15:30:59.001Z,98679.00
2022-09-13T15:32:35.962Z,98682.00
2022-09-13T15:34:14.464Z,98681.00
2022-09-13T15:35:48.753Z,98669.00
2022-09-13T15:37:43.482Z,98680.00
2022-09-13T15:39:20.008Z,98683.00
2022-09-13T15:41:04.208Z,98680.00
2022-09-13T15:42:37.614Z,98681.00
2022-09-13T15:44:11.653Z,98681.00
2022-09-13T15:45:46.236Z,98681.00
2022-09-13T15:47:24.518Z,98676.00
2022-09-13T15:49:08.072Z,98680.00
2022-09-13T15:51:10.150Z,98683.00
2022-09-13T15:52:45.821Z,98678.00
2022-09-13T15:54:24.000Z,98679.00
2022-09-13T15:55:59.166Z,98678.00
2022-09-13T15:57:35.710Z,98678.00
2022-09-13T15:59:11.656Z,98679.00
2022-09-13T16:00:50.773Z,98690.00
2022-09-13T16:02:35.578Z,98682.00
2022-09-13T16:04:13.229Z,98684.00
2022-09-13T16:05:53.433Z,98688.00
2022-09-13T16:07:29.790Z,98685.00
2022-09-13T16:09:09.012Z,98686.00
2022-09-13T16:10:45.847Z,98689.00
2022-09-13T16:12:26.960Z,98681.00
2022-09-13T16:14:02.006Z,98673.00
2022-09-13T16:15:36.183Z,98682.00
2022-09-13T16:17:16.732Z,98675.00
2022-09-13T16:18:50.650Z,98667.00
2022-09-13T16:20:24.123Z,98673.00
2022-09-13T16:21:57.401Z,98683.00
2022-09-13T16:23:31.019Z,98686.00
2022-09-13T16:25:04.511Z,98684.00
2022-09-13T16:26:39.395Z,98682.00
2022-09-13T16:28:20.803Z,98689.00
2022-09-13T16:29:56.247Z,98692.00
2022-09-13T16:31:28.805Z,98688.00
2022-09-13T16:33:02.612Z,98690.00
2022-09-13T16:34:36.339Z,98686.00
2022-09-13T16:36:13.231Z,98684.00
2022-09-13T16:37:51.312Z,98684.00
2022-09-13T16:39:25.067Z,98689.00
2022-09-13T16:40:58.656Z,98697.00
2022-09-13T16:42:31.557Z,98689.00
2022-09-13T16:44:05.520Z,98690.00
2022-09-13T16:45:42.877Z,98691.00
2022-09-13T16:47:16.213Z,98692.00
2022-09-13T16:48:55.575Z,98691.00
2022-09-13T16:50:32.049Z,98690.00
2022-09-13T16:52:09.428Z,98690.00
2022-09-13T16:53:43.876Z,98685.00
2022-09-13T16:55:17.484Z,98696.00
2022-09-13T16:56:50.953Z,98693.00
2022-09-13T16:58:24.297Z,98691.00
2022-09-13T16:59:58.806Z,98689.00
2022-09-13T17:01:33.816Z,98684.00
2022-09-13T17:03:07.215Z,98694.00
2022-09-13T17:04:41.021Z,98684.00
2022-09-13T17:06:18.341Z,98690.00
2022-09-13T17:07:53.510Z,98692.00
2022-09-13T17:09:27.596Z,98692.00
2022-09-13T17:11:01.765Z,98695.00
2022-09-13T17:12:35.705Z,98696.00
2022-09-13T17:14:14.623Z,98683.00
2022-09-13T17:15:48.019Z,98689.00
2022-09-13T17:17:22.612Z,98691.00
2022-09-13T17:18:58.217Z,98686.00
2022-09-13T17:20:31.425Z,98693.00
2022-09-13T17:22:08.025Z,98692.00
2022-09-13T17:23:41.671Z,98699.00
2022-09-13T17:25:16.036Z,98704.00
2022-09-13T17:26:49.517Z,98697.00
2022-09-13T17:28:23.104Z,98705.00
2022-09-13T17:29:56.426Z,98695.00
2022-09-13T17:31:30.042Z,98707.00
2022-09-13T17:33:06.005Z,98701.00
2022-09-13T17:34:39.425Z,98702.00
2022-09-13T17:36:15.650Z,98708.00
2022-09-13T17:37:49.286Z,98695.00
2022-09-13T17:39:23.049Z,98702.00
2022-09-13T17:41:05.965Z,98702.00
2022-09-13T17:42:39.197Z,98705.00
2022-09-13T17:44:12.958Z,98705.00
2022-09-13T17:45:46.688Z,98698.00
2022-09-13T17:47:20.128Z,98699.00
2022-09-13T17:48:56.848Z,98693.00
2022-09-13T17:50:30.637Z,98691.00
2022-09-13T17:52:04.845Z,98693.00
2022-09-13T17:53:40.448Z,98689.00
2022-09-13T17:55:14.018Z,98691.00
2022-09-13T17:56:47.482Z,98697.00
2022-09-13T17:58:20.764Z,98692.00
2022-09-13T17:59:55.026Z,98691.00
2022-09-13T18:01:28.482Z,98690.00
2022-09-13T18:03:03.606Z,98690.00
2022-09-13T18:04:38.607Z,98686.00
2022-09-13T18:06:14.495Z,98684.00
2022-09-13T18:07:48.325Z,98682.00
2022-09-13T18:09:22.352Z,98687.00
2022-09-13T18:11:12.392Z,98685.00
2022-09-13T18:12:47.199Z,98680.00
2022-09-13T18:14:21.452Z,98687.00
2022-09-13T18:16:03.643Z,98680.00
2022-09-13T18:17:37.240Z,98684.00
2022-09-13T18:19:11.580Z,98687.00
2022-09-13T18:20:48.162Z,98692.00
2022-09-13T18:22:21.866Z,98698.00
2022-09-13T18:23:59.026Z,98692.00
2022-09-13T18:25:33.231Z,98690.00
2022-09-13T18:27:07.076Z,98693.00
2022-09-13T18:28:40.554Z,98696.00
2022-09-13T18:30:14.572Z,98693.00
2022-09-13T18:31:47.989Z,98694.00
2022-09-13T18:33:22.631Z,98695.00
2022-09-13T18:34:56.216Z,98699.00
2022-09-13T18:36:34.072Z,98689.00
2022-09-13T18:38:07.432Z,98697.00
2022-09-13T18:39:41.022Z,98694.00
2022-09-13T18:41:18.620Z,98697.00
2022-09-13T18:42:53.078Z,98686.00
2022-09-13T18:44:30.160Z,98700.00
2022-09-13T18:46:07.178Z,98703.00
2022-09-13T18:47:40.596Z,98704.00
2022-09-13T18:49:14.983Z,98705.00
2022-09-13T18:50:48.288Z,98706.00
2022-09-13T18:52:22.870Z,98699.00
2022-09-13T18:53:57.257Z,98699.00
2022-09-13T18:55:30.521Z,98699.00
2022-09-13T18:57:04.253Z,98697.00
2022-09-13T18:58:39.945Z,98696.00
2022-09-13T19:00:13.817Z,98701.00
2022-09-13T19:01:48.869Z,98700.00
2022-09-13T19:03:22.839Z,98705.00
2022-09-13T19:04:56.694Z,98707.00
2022-09-13T19:06:33.774Z,98703.00
2022-09-13T19:08:11.505Z,98711.00
2022-09-13T19:09:44.905Z,98706.00
2022-09-13T19:11:44.801Z,98713.00
2022-09-13T19:13:13.960Z,98701.00
2022-09-13T19:14:47.457Z,98707.00
2022-09-13T19:16:21.921Z,98709.00
2022-09-13T19:17:55.322Z,98697.00
2022-09-13T19:19:30.749Z,98705.00
2022-09-13T19:21:07.317Z,98697.00
2022-09-13T19:22:40.554Z,98699.00
2022-09-13T19:24:19.037Z,98698.00
2022-09-13T19:25:53.348Z,98700.00
2022-09-13T19:27:26.718Z,98698.00
2022-09-13T19:29:06.079Z,98693.00
2022-09-13T19:30:39.703Z,98702.00
2022-09-13T19:32:23.790Z,98694.00
2022-09-13T19:33:59.124Z,98701.00
2022-09-13T19:35:37.130Z,98704.00
2022-09-13T19:37:10.674Z,98701.00